createdAt,value
2023-02-22T00:45:30.927Z,17.35
2023-02-22T00:48:27.677Z,2.55
2023-02-22T00:54:57.174Z,1.45
2023-02-22T01:01:40.116Z,25.30
2023-02-22T01:04:52.237Z,9.70
2023-02-22T01:07:47.112Z,16.17
2023-02-22T01:15:31.103Z,2.15
2023-02-22T01:18:48.764Z,4.68
2023-02-22T01:26:52.878Z,13.00
2023-02-22T01:29:46.430Z,3.97
2023-02-22T01:32:42.219Z,2.13
2023-02-22T01:35:33.060Z,17.10
2023-02-22T01:43:21.326Z,2.10
2023-02-22T01:46:31.686Z,7.10
2023-02-22T01:49:30.250Z,1.55
2023-02-22T01:55:47.059Z,5.28
2023-02-22T01:58:49.351Z,16.15
2023-02-22T02:02:28.929Z,1.10
2023-02-22T02:05:18.307Z,2.03
2023-02-22T02:08:22.681Z,1.55
2023-02-22T02:11:17.203Z,1.45
2023-02-22T02:14:14.073Z,0.80
2023-02-22T02:17:17.798Z,2.55
2023-02-22T02:20:41.185Z,27.40
2023-02-22T02:23:53.747Z,3.67
2023-02-22T02:27:08.061Z,3.38
2023-02-22T02:34:33.119Z,2.15
2023-02-22T02:41:06.612Z,7.22
2023-02-22T02:47:12.423Z,1.30
2023-02-22T02:50:28.159Z,18.85
2023-02-22T02:53:41.129Z,2.15
2023-02-22T03:03:52.496Z,1.83
2023-02-22T03:07:32.634Z,1.70
2023-02-22T03:10:50.738Z,0.77
2023-02-22T03:18:48.329Z,4.50
2023-02-22T03:22:10.059Z,0.73
2023-02-22T03:25:16.617Z,2.15
2023-02-22T03:28:12.108Z,2.05
2023-02-22T03:31:22.444Z,0.98
2023-02-22T03:34:48.153Z,0.85
2023-02-22T03:38:20.009Z,3.08
2023-02-22T03:41:11.605Z,6.85
2023-02-22T03:44:09.362Z,1.42
2023-02-22T03:47:02.429Z,17.48
2023-02-22T03:50:28.651Z,1.55
2023-02-22T03:53:41.376Z,2.33
2023-02-22T03:57:10.220Z,20.25
2023-02-22T04:00:20.241Z,7.65
2023-02-22T04:08:00.456Z,4.15
2023-02-22T04:10:47.240Z,3.35
2023-02-22T04:13:35.319Z,1.27
2023-02-22T04:16:22.180Z,2.22
2023-02-22T04:19:09.962Z,1.98
2023-02-22T04:21:57.517Z,1.08
2023-02-22T04:24:45.618Z,1.25
2023-02-22T04:27:31.757Z,3.10
2023-02-22T04:30:36.373Z,3.05
2023-02-22T04:33:25.425Z,4.00
2023-02-22T04:36:13.676Z,1.13
2023-02-22T04:39:00.571Z,2.83
2023-02-22T04:41:48.436Z,15.48
2023-02-22T04:44:34.636Z,3.08
2023-02-22T04:47:20.952Z,3.25
2023-02-22T04:50:07.782Z,3.50
2023-02-22T04:52:54.373Z,2.10
2023-02-22T04:55:40.727Z,3.53
2023-02-22T04:58:26.817Z,0.80
2023-02-22T05:01:14.408Z,6.57
2023-02-22T05:04:02.339Z,14.65
2023-02-22T05:06:48.789Z,3.22
2023-02-22T05:09:34.703Z,2.05
2023-02-22T05:12:21.564Z,9.98
2023-02-22T05:15:08.399Z,1.67
2023-02-22T05:17:54.304Z,20.67
2023-02-22T05:20:40.903Z,7.95
2023-02-22T05:23:27.263Z,6.15
2023-02-22T05:26:13.133Z,9.35
2023-02-22T05:28:59.420Z,4.88
2023-02-22T05:31:45.925Z,1.10
2023-02-22T05:34:32.543Z,6.35
2023-02-22T05:37:18.715Z,8.40
2023-02-22T05:40:08.527Z,2.92
2023-02-22T05:42:55.264Z,1.67
2023-02-22T05:45:42.035Z,3.00
2023-02-22T05:48:28.131Z,8.27
2023-02-22T05:51:14.542Z,3.97
2023-02-22T05:54:01.024Z,1.75
2023-02-22T05:56:48.117Z,19.50
2023-02-22T05:59:34.046Z,3.42
2023-02-22T06:02:20.379Z,6.20
2023-02-22T06:05:06.929Z,9.13
2023-02-22T06:07:53.059Z,5.80
2023-02-22T06:10:39.306Z,23.55
2023-02-22T06:13:25.510Z,2.67
2023-02-22T06:16:11.680Z,18.95
2023-02-22T06:18:58.275Z,22.45
2023-02-22T06:21:51.091Z,3.10
2023-02-22T06:24:38.665Z,19.25
2023-02-22T06:27:24.597Z,6.53
2023-02-22T06:30:13.330Z,8.63
2023-02-22T06:32:59.541Z,3.50
2023-02-22T06:35:45.806Z,29.77
2023-02-22T06:38:32.193Z,15.85
2023-02-22T06:56:17.885Z,70.65
2023-02-22T06:59:23.793Z,76.30
2023-02-22T07:02:12.830Z,181.27
2023-02-22T07:05:01.720Z,150.77
2023-02-22T07:07:48.572Z,28.60
2023-02-22T07:10:55.124Z,37.42
2023-02-22T07:13:41.405Z,72.53
2023-02-22T07:16:46.018Z,13.18
2023-02-22T07:19:31.914Z,76.70
2023-02-22T07:22:18.190Z,82.05
2023-02-22T07:25:04.465Z,76.40
2023-02-22T07:27:52.588Z,64.20
2023-02-22T07:30:38.606Z,61.42
2023-02-22T07:33:24.647Z,65.43
2023-02-22T07:36:10.816Z,90.97
2023-02-22T07:38:57.049Z,48.30
2023-02-22T07:41:43.160Z,35.40
2023-02-22T07:44:41.719Z,102.93
2023-02-22T07:47:27.617Z,60.17
2023-02-22T07:50:15.099Z,56.63
2023-02-22T07:53:02.957Z,71.38
2023-02-22T07:55:52.138Z,46.08
2023-02-22T07:58:38.037Z,33.65
2023-02-22T08:01:24.887Z,32.45
2023-02-22T08:04:14.221Z,22.85
2023-02-22T08:07:04.836Z,27.55
2023-02-22T08:09:51.738Z,30.48
2023-02-22T08:12:42.387Z,27.27
2023-02-22T08:15:34.657Z,32.50
2023-02-22T08:18:21.940Z,33.50
2023-02-22T08:21:11.095Z,25.27
2023-02-22T08:23:57.406Z,84.32
2023-02-22T08:26:46.963Z,36.92
2023-02-22T08:29:33.788Z,27.67
2023-02-22T08:32:20.250Z,39.60
2023-02-22T08:35:07.737Z,49.22
2023-02-22T08:37:55.711Z,98.15
2023-02-22T08:40:42.042Z,34.13
2023-02-22T08:43:28.703Z,48.17
2023-02-22T08:46:16.662Z,41.95
2023-02-22T08:49:03.364Z,55.30
2023-02-22T08:51:49.795Z,77.95
2023-02-22T08:54:55.765Z,37.88
2023-02-22T08:57:41.626Z,50.28
2023-02-22T09:00:29.692Z,25.77
2023-02-22T09:03:15.896Z,33.08
2023-02-22T09:06:01.961Z,28.80
2023-02-22T09:08:48.081Z,21.20
2023-02-22T09:11:34.204Z,14.77
2023-02-22T09:14:20.179Z,68.43
2023-02-22T09:17:06.571Z,56.88
2023-02-22T09:19:58.272Z,33.45
2023-02-22T09:22:53.542Z,44.95
2023-02-22T09:25:41.114Z,63.63
2023-02-22T09:28:29.140Z,30.42
2023-02-22T09:31:16.071Z,51.15
2023-02-22T09:34:04.282Z,50.13
2023-02-22T09:36:50.518Z,46.35
2023-02-22T09:39:37.689Z,57.45
2023-02-22T09:42:42.005Z,68.82
2023-02-22T09:45:32.574Z,28.88
2023-02-22T09:48:22.425Z,32.13
2023-02-22T09:51:15.627Z,27.58
2023-02-22T09:54:06.350Z,33.28
2023-02-22T09:56:55.728Z,26.95
2023-02-22T09:59:50.522Z,20.02
2023-02-22T10:02:38.687Z,25.42
2023-02-22T10:05:29.601Z,22.95
2023-02-22T10:11:29.698Z,19.38
2023-02-22T10:14:35.217Z,23.75
2023-02-22T10:17:35.961Z,38.53
2023-02-22T10:20:41.372Z,30.58
2023-02-22T10:23:46.841Z,19.00
2023-02-22T10:26:36.804Z,18.90
2023-02-22T10:29:41.657Z,19.38
2023-02-22T10:32:36.084Z,20.83
2023-02-22T10:35:28.223Z,21.58
2023-02-22T10:41:13.040Z,33.17
2023-02-22T10:44:01.945Z,23.10
2023-02-22T10:46:48.752Z,23.10
2023-02-22T10:49:42.072Z,21.20
2023-02-22T10:52:33.904Z,19.77
2023-02-22T10:55:22.088Z,25.52
2023-02-22T10:58:09.186Z,27.88
2023-02-22T11:01:00.165Z,32.45
2023-02-22T11:03:49.811Z,25.08
2023-02-22T11:06:36.385Z,28.35
2023-02-22T11:09:22.736Z,30.08
2023-02-22T11:12:16.670Z,80.82
2023-02-22T11:15:22.913Z,20.13
2023-02-22T11:18:21.617Z,21.13
2023-02-22T11:21:10.391Z,20.73
2023-02-22T11:24:08.590Z,20.50
2023-02-22T11:26:56.481Z,20.77
2023-02-22T11:29:43.823Z,20.30
2023-02-22T11:32:30.109Z,21.10
2023-02-22T11:35:19.894Z,26.25
2023-02-22T11:38:37.060Z,21.73
2023-02-22T11:41:42.355Z,81.80
2023-02-22T11:44:32.236Z,13.75
2023-02-22T11:47:18.278Z,19.88
2023-02-22T11:50:10.627Z,12.05
2023-02-22T11:53:07.652Z,13.25
2023-02-22T11:56:08.135Z,15.52
2023-02-22T11:58:54.316Z,9.20
2023-02-22T12:01:46.533Z,9.65
2023-02-22T12:04:36.470Z,8.38
2023-02-22T12:07:30.298Z,7.60
2023-02-22T12:10:29.691Z,4.47
2023-02-22T12:13:18.916Z,5.03
2023-02-22T12:16:05.097Z,8.27
2023-02-22T12:19:09.645Z,8.63
2023-02-22T12:22:02.708Z,9.38
2023-02-22T12:25:08.550Z,4.43
2023-02-22T12:27:55.061Z,5.80
2023-02-22T12:30:43.192Z,7.70
2023-02-22T12:33:31.608Z,9.27
2023-02-22T12:36:20.871Z,4.72
2023-02-22T12:39:21.561Z,5.15
2023-02-22T12:42:14.144Z,24.20
2023-02-22T12:45:06.630Z,11.60
2023-02-22T12:48:02.398Z,6.18
2023-02-22T12:50:52.892Z,5.85
2023-02-22T12:53:40.877Z,4.30
2023-02-22T12:56:36.499Z,6.22
2023-02-22T12:59:33.942Z,7.95
2023-02-22T13:02:43.664Z,6.90
2023-02-22T13:05:34.799Z,9.20
2023-02-22T13:08:37.977Z,9.33
2023-02-22T13:11:23.569Z,11.95
2023-02-22T13:14:30.187Z,7.30
2023-02-22T13:17:28.755Z,8.90
2023-02-22T13:20:23.442Z,5.05
2023-02-22T13:23:15.065Z,4.97
2023-02-22T13:26:08.895Z,8.02
2023-02-22T13:28:55.014Z,4.97
2023-02-22T13:31:50.215Z,8.13
2023-02-22T13:34:45.425Z,7.45
2023-02-22T13:37:40.610Z,5.45
2023-02-22T13:40:26.848Z,7.80
2023-02-22T13:43:31.708Z,5.63
2023-02-22T13:46:43.322Z,5.20
2023-02-22T13:49:48.110Z,6.90
2023-02-22T13:52:34.657Z,9.63
2023-02-22T13:55:28.201Z,11.52
2023-02-22T13:58:14.464Z,10.80
2023-02-22T14:01:00.943Z,7.15
2023-02-22T14:03:48.410Z,3.88
2023-02-22T14:06:38.546Z,5.25
2023-02-22T14:09:45.638Z,6.03
2023-02-22T14:12:31.435Z,8.05
2023-02-22T14:15:29.554Z,4.97
2023-02-22T14:18:17.163Z,9.45
2023-02-22T14:21:10.093Z,9.50
2023-02-22T14:23:57.061Z,8.13
2023-02-22T14:26:54.245Z,12.25
2023-02-22T14:29:57.731Z,7.25
2023-02-22T14:32:44.216Z,5.65
2023-02-22T14:35:49.158Z,6.53
2023-02-22T14:38:38.409Z,6.95
2023-02-22T14:41:27.665Z,6.28
2023-02-22T14:44:14.351Z,7.85
2023-02-22T14:47:05.134Z,5.85
2023-02-22T14:49:52.755Z,15.25
2023-02-22T14:52:39.809Z,8.82
2023-02-22T14:55:26.628Z,25.90
2023-02-22T14:58:35.850Z,6.97
2023-02-22T15:01:27.229Z,18.38
2023-02-22T15:04:20.974Z,34.47
2023-02-22T15:07:20.679Z,26.42
2023-02-22T15:10:20.705Z,19.20
2023-02-22T15:13:14.136Z,12.80
2023-02-22T15:16:02.420Z,11.90
2023-02-22T15:18:55.583Z,15.20
2023-02-22T15:21:46.268Z,11.60
2023-02-22T15:24:37.031Z,17.33
2023-02-22T15:27:23.141Z,14.13
2023-02-22T15:30:16.973Z,11.85
2023-02-22T15:33:14.958Z,11.40
2023-02-22T15:36:01.175Z,11.82
2023-02-22T15:38:48.006Z,23.15
2023-02-22T15:41:34.037Z,24.83
2023-02-22T15:44:24.259Z,30.38
2023-02-22T15:47:18.074Z,34.25
2023-02-22T15:50:16.453Z,43.28
2023-02-22T15:53:04.604Z,22.23
2023-02-22T15:55:56.227Z,16.55
2023-02-22T15:58:45.888Z,24.67
2023-02-22T16:01:37.003Z,22.67
2023-02-22T16:04:24.561Z,13.30
2023-02-22T16:07:17.245Z,15.27
2023-02-22T16:10:09.353Z,25.23
2023-02-22T16:13:30.515Z,38.22
2023-02-22T16:16:20.903Z,29.90
2023-02-22T16:19:33.060Z,15.70
2023-02-22T16:22:35.620Z,11.88
2023-02-22T16:25:29.249Z,15.65
2023-02-22T16:28:31.855Z,21.85
2023-02-22T16:31:32.107Z,8.50
2023-02-22T16:34:18.482Z,37.70
2023-02-22T16:37:04.955Z,62.65
2023-02-22T16:39:54.530Z,21.38
2023-02-22T16:42:40.557Z,18.50
2023-02-22T16:45:26.766Z,18.63
2023-02-22T16:48:19.192Z,20.38
2023-02-22T16:53:53.313Z,33.67
2023-02-22T16:56:40.673Z,27.10
2023-02-22T16:59:26.769Z,37.60
2023-02-22T17:02:16.491Z,17.70
2023-02-22T17:05:03.047Z,12.50
2023-02-22T17:07:49.375Z,14.27
2023-02-22T17:10:35.498Z,12.48
2023-02-22T17:13:26.629Z,41.25
2023-02-22T17:16:16.860Z,69.20
2023-02-22T17:19:05.377Z,81.93
2023-02-22T17:21:51.552Z,71.35
2023-02-22T17:24:39.352Z,51.88
2023-02-22T17:27:25.785Z,83.53
2023-02-22T17:30:13.964Z,196.77
2023-02-22T17:33:06.732Z,281.48
2023-02-22T17:35:53.482Z,213.85
2023-02-22T17:38:41.906Z,265.70
2023-02-22T17:41:29.316Z,193.95
2023-02-22T17:44:15.323Z,131.77
2023-02-22T17:47:01.603Z,73.03
2023-02-22T17:49:49.177Z,78.07
2023-02-22T17:52:34.936Z,85.65
2023-02-22T17:55:21.847Z,71.07
2023-02-22T17:58:14.682Z,76.70
2023-02-22T18:01:01.408Z,154.50
2023-02-22T18:03:47.697Z,211.55
2023-02-22T18:06:35.167Z,159.52
2023-02-22T18:09:21.190Z,91.82
2023-02-22T18:12:07.364Z,106.35
2023-02-22T18:14:53.558Z,96.25
2023-02-22T18:17:39.688Z,87.53
2023-02-22T18:20:38.384Z,121.18
2023-02-22T18:23:27.988Z,229.75
2023-02-22T18:26:15.609Z,145.30
2023-02-22T18:29:01.558Z,110.28
2023-02-22T18:31:47.750Z,109.82
2023-02-22T18:34:33.908Z,63.10
2023-02-22T18:37:20.667Z,58.13
2023-02-22T18:40:10.765Z,70.90
2023-02-22T18:42:57.344Z,48.70
2023-02-22T18:45:43.377Z,66.18
2023-02-22T18:48:29.857Z,83.43
2023-02-22T18:51:17.412Z,104.38
2023-02-22T18:54:03.851Z,103.97
2023-02-22T18:56:50.206Z,115.95
2023-02-22T18:59:38.068Z,98.13
2023-02-22T19:02:26.546Z,86.95
2023-02-22T19:05:13.316Z,95.28
2023-02-22T19:07:59.284Z,72.93
2023-02-22T19:10:45.840Z,95.57
2023-02-22T19:13:32.230Z,69.47
2023-02-22T19:16:19.998Z,58.58
2023-02-22T19:19:06.104Z,60.90
2023-02-22T19:21:52.323Z,67.00
2023-02-22T19:24:40.004Z,55.30
2023-02-22T19:27:28.093Z,47.78
2023-02-22T19:33:02.734Z,60.70
2023-02-22T19:35:49.069Z,12.48
2023-02-22T19:38:35.398Z,44.97
2023-02-22T19:41:22.994Z,52.97
2023-02-22T19:44:09.388Z,75.18
2023-02-22T19:46:55.908Z,6.32
2023-02-22T19:49:42.214Z,53.65
2023-02-22T19:52:29.141Z,38.35
2023-02-22T19:55:36.358Z,4.05
2023-02-22T19:58:22.456Z,24.50
2023-02-22T20:01:12.472Z,38.97
2023-02-22T20:04:08.258Z,12.45
2023-02-22T20:06:55.004Z,16.15
2023-02-22T20:09:43.274Z,43.15
2023-02-22T20:12:29.379Z,53.08
2023-02-22T20:15:15.509Z,42.47
2023-02-22T20:18:01.724Z,40.33
2023-02-22T20:20:48.097Z,38.03
2023-02-22T20:23:34.244Z,32.95
2023-02-22T20:26:22.692Z,5.13
2023-02-22T20:29:09.381Z,35.22
2023-02-22T20:31:59.485Z,38.30
2023-02-22T20:34:46.195Z,39.25
2023-02-22T20:37:33.606Z,36.28
2023-02-22T20:40:20.140Z,24.75
2023-02-22T20:43:06.477Z,18.00
2023-02-22T20:45:52.640Z,27.05
2023-02-22T20:48:38.774Z,21.40
2023-02-22T20:51:25.593Z,18.77
2023-02-22T20:54:12.480Z,36.67
2023-02-22T20:56:58.658Z,27.58
2023-02-22T20:59:46.356Z,32.17
2023-02-22T21:02:32.326Z,32.85
2023-02-22T21:05:18.663Z,10.30
2023-02-22T21:08:05.296Z,35.78
2023-02-22T21:10:51.696Z,12.52
2023-02-22T21:13:37.896Z,37.35
2023-02-22T21:16:25.628Z,15.65
2023-02-22T21:19:12.216Z,34.80
2023-02-22T21:21:59.856Z,8.90
2023-02-22T21:24:47.656Z,30.13
2023-02-22T21:27:34.130Z,12.75
2023-02-22T21:30:20.288Z,2.50
2023-02-22T21:33:06.920Z,15.20
2023-02-22T21:35:53.213Z,36.03
2023-02-22T21:38:42.976Z,2.80
2023-02-22T21:41:30.563Z,13.05
2023-02-22T21:44:17.432Z,7.43
2023-02-22T21:47:03.824Z,23.10
2023-02-22T21:49:50.242Z,5.40
2023-02-22T21:52:37.553Z,42.17
2023-02-22T21:55:23.580Z,22.42
2023-02-22T21:58:12.289Z,5.40
2023-02-22T22:01:03.951Z,29.17
2023-02-22T22:03:51.077Z,45.70
2023-02-22T22:06:37.143Z,6.85
2023-02-22T22:09:23.876Z,31.90
2023-02-22T22:12:10.613Z,22.95
2023-02-22T22:14:56.809Z,4.15
2023-02-22T22:17:43.837Z,32.38
2023-02-22T22:20:29.696Z,22.23
2023-02-22T22:23:15.989Z,2.85
2023-02-22T22:26:02.508Z,2.45
2023-02-22T22:28:49.674Z,8.55
2023-02-22T22:31:36.330Z,33.90
2023-02-22T22:34:24.519Z,12.38
2023-02-22T22:37:10.487Z,3.35
2023-02-22T22:40:15.895Z,28.83
2023-02-22T22:43:08.887Z,3.83
2023-02-22T22:45:58.325Z,4.43
2023-02-22T22:48:47.200Z,30.95
2023-02-22T22:51:33.788Z,25.77
2023-02-22T22:54:19.603Z,12.52
2023-02-22T22:57:06.586Z,28.38
2023-02-22T22:59:54.096Z,5.68
2023-02-22T23:02:40.802Z,15.32
2023-02-22T23:05:46.469Z,6.05
2023-02-22T23:08:43.266Z,34.95
2023-02-22T23:14:53.042Z,6.90
2023-02-22T23:17:42.698Z,28.48
2023-02-22T23:20:29.246Z,3.90
2023-02-22T23:23:33.868Z,8.70
2023-02-22T23:26:20.533Z,1.30
2023-02-22T23:29:08.877Z,15.68
2023-02-22T23:31:55.965Z,13.88
2023-02-22T23:34:42.348Z,1.52
2023-02-22T23:37:35.551Z,5.82
2023-02-22T23:40:22.072Z,5.45
2023-02-22T23:43:11.822Z,18.23
2023-02-22T23:46:00.350Z,4.38
2023-02-22T23:48:52.025Z,1.80
2023-02-22T23:51:39.629Z,3.20
2023-02-22T23:54:26.150Z,21.05
2023-02-22T23:57:12.244Z,4.05
2023-02-22T23:59:58.733Z,3.83
